Terminal Aerodrome Forecast
Issued by NWS

Home | Current Version | Previous Version | Graphics & Text | Print | Product List | Glossary On
Versions: 1 2 3 4 5 6 7 8 9 10 11 12 13 14 15 16 17 18
000
FTUS43 KMPX 091512 AAA
TAFRNH
TAF AMD
KRNH 091512Z 0915/1012 27006KT P6SM SCT014 OVC050
      TEMPO 0915/0918 4SM -SHSN BKN014 OVC050
     FM091800 28006KT P6SM SCT025 OVC050
     FM100000 29004KT P6SM SCT035 BKN090=

USA.gov is the U.S. government's official web portal to all federal, state and local government web resources and services.